TOURFACTS.DK  
Stats and Facts from Tour de France.

Tour de France 2018 starts in 202 days
  Riders   Stages   Teams   Summits   Yearly  


 
Search by year

 2017 - St. 21:  14824 starters.
  5132 different riders.
  635 teams.
  2232 stages.
  454 restdays.
  439589.60 km.
  5653 abandonnees.


Top 3
Christopher Froome86:20:55
Rigoberto Uran86:21:49
Romain Bardet86:23:15
Warren Barguil169 pt.
Primoz Roglic80 pt.
Thomas De Gendt64 pt.
Michael Matthews359 pt.
André Greipel234 pt.
Edvald Boasson Hagen220 pt.
Simon Yates86:27:09
Louis Meintjes86:29:15
Emanuel Buchmann86:54:16
Facts from Tour de France 2013
  |   Stages.  |   Stage winners.  |   Days in yellow  |   Average speed.  |   Route.  |   Teams.  |   All riders.  |   Rookies.  |   Withdrawls.  |  

  |   GC.  |   Polka  |   Green  |   White  |   Summits. (In tour)  |   Summits. (Points)  |   Miscellaneous.  |  

Stage 18 on 18 - 07 - 2013
         Owning:    Christopher Froome    
Pick a stage:  1 2 3 4 5 6 7 8 9 10 11 12 13 14 15 16 17 18 19 20 21
  GapAlpe-d´Huez | Dist: 168.00 km.
Cat: 2Col de ManseCANRyder Hesjedal
5 points
 
Cat: 3Rampe du MottyUSATom Danielson
2 points
 
Cat: 2Col de ManseCANRyder Hesjedal
5 points
 
Cat: HAlpe d'HuezITAMoreno Moser
25 points
 
Cat: 2Col de SarenneUSATejay Van Garderen
5 points
 
Cat: HAlpe d'HuezITAMoreno Moser
25 points
 

Average speed for all riders in stage:  32,199 km./hr.
    Place:Name:Team:Time:Km/h:
FRAChristophe RiblonFRAAg2r La Mondiale04:51:32  +  00:00:00=34,576 
USATejay Van GarderenUSABMC Racing Team04:52:31  +  00:00:59=34,460 
ITAMoreno MoserITACannondale Pro Cycling04:52:59  +  00:01:27=34,405 
4 COLNairo QuintanaESPMovistar Team04:53:44  +  00:02:12=34,317 
5 ESPJoaquim RodriguezRUSTeam Katusha04:53:47  +  00:02:15=34,311 
6 ESPAlejandro ValverdeESPMovistar Team04:54:54  +  00:03:22=34,181 
7 AUSRichie PorteGBRSky Procycling04:55:10  +  00:03:38=34,150 
8 KENChristopher FroomeGBRSky Procycling04:55:10  +  00:03:38=34,150 
9 ESPMikel NieveESPEuskaltel - Euskadi04:55:47  +  00:04:15=34,079 
10 SUIJakob FuglsangKAZAstana Pro Team04:55:47  +  00:04:15=34,079 
11 ESPAlberto ContadorDNKTeam Saxo-Tinkoff04:55:47  +  00:04:15=34,079 
12 CZERoman KreuzigerDNKTeam Saxo-Tinkoff04:56:03  +  00:04:31=34,048 
13 AUSMichael RogersDNKTeam Saxo-Tinkoff04:56:17  +  00:04:45=34,021 
14 USAAndrew TalanskyUSAGarmin Sharp04:56:21  +  00:04:49=34,014 
15 COLJosé SerpaITALampre-Merida04:56:50  +  00:05:18=33,958 
16 FRARomain BardetFRAAg2r La Mondiale04:57:12  +  00:05:40=33,917 
17 ESPIgor AntonESPEuskaltel - Euskadi04:57:12  +  00:05:40=33,917 
18 FRAJohn GadretFRAAg2r La Mondiale04:57:14  +  00:05:42=33,913 
19 ITAAlessandro De MarchiITACannondale Pro Cycling04:57:19  +  00:05:47=33,903 
20 BELBart De ClercqBELLotto-Belisol Team04:57:28  +  00:05:56=33,886 
21 ESPDaniel MorenoRUSTeam Katusha04:57:40  +  00:06:08=33,863 
22 NEDWout PoelsNLDVacansoleil - DCM04:57:42  +  00:06:10=33,860 
23 ESPDaniel NavarroFRACofidis – Solutions Crédits04:57:45  +  00:06:13=33,854 
24 FRAAlexandre GeniezFRAFDJ.fr04:57:45  +  00:06:13=33,854 
25 NEDRobert GesinkNLDBelkin Pro Cycling04:57:45  +  00:06:13=33,854 
26 NEDBauke MollemaNLDBelkin Pro Cycling04:57:45  +  00:06:13=33,854 
27 FRAPierre RollandFRATeam Europcar04:57:51  +  00:06:19=33,843 
28 BELMaxime MonfortLUXRadioShack Leopard04:58:02  +  00:06:30=33,822 
29 BELJan BakelantsLUXRadioShack Leopard04:58:17  +  00:06:45=33,793 
30 FRAArnold JeannessonFRAFDJ.fr04:58:31  +  00:06:59=33,767 
31 POLMichal KwiatkowskiBELOmega Pharma – Quick Step04:58:38  +  00:07:06=33,754 
32 NORLars Petter NordhaugNLDBelkin Pro Cycling04:58:41  +  00:07:09=33,748 
33 FRAGuillaume LevarletFRACofidis – Solutions Crédits05:00:41  +  00:09:09=33,524 
34 ITADamiano CunegoITALampre-Merida05:00:49  +  00:09:17=33,509 
35 FRAHubert DupontFRAAg2r La Mondiale05:01:06  +  00:09:34=33,477 
36 FRASylvain ChavanelBELOmega Pharma – Quick Step05:01:06  +  00:09:34=33,477 
37 NEDLaurens ten DamNLDBelkin Pro Cycling05:01:26  +  00:09:54=33,440 
38 FRAThomas VoecklerFRATeam Europcar05:01:26  +  00:09:54=33,440 
39 NEDLars BoomNLDBelkin Pro Cycling05:02:31  +  00:10:59=33,320 
40 LUXAndy SchleckLUXRadioShack Leopard05:02:55  +  00:11:23=33,276 
41 FRAAlexis VuillermozFRASojasun05:03:04  +  00:11:32=33,260 
42 USATom DanielsonUSAGarmin Sharp05:04:24  +  00:12:52=33,114 
43 CANRyder HesjedalUSAGarmin Sharp05:04:24  +  00:12:52=33,114 
44 FRAPierrick FédrigoFRAFDJ.fr05:04:40  +  00:13:08=33,085 
45 FRACyril GautierFRATeam Europcar05:04:40  +  00:13:08=33,085 
46 ESPHaimar ZubeldiaLUXRadioShack Leopard05:04:40  +  00:13:08=33,085 
47 SVKPeter VelitsBELOmega Pharma – Quick Step05:04:40  +  00:13:08=33,085 
48 SUISteve MorabitoUSABMC Racing Team05:05:07  +  00:13:35=33,037 
49 POLPrzemyslaw NiemiecITALampre-Merida05:05:36  +  00:14:04=32,984 
50 ESPMikel AstarlozaESPEuskaltel - Euskadi05:06:22  +  00:14:50=32,902 
51 GERJens VoigtLUXRadioShack Leopard05:07:06  +  00:15:34=32,823 
52 IOMPeter KennaughGBRSky Procycling05:07:44  +  00:16:12=32,756 
53 ESPJesus  HernandezDNKTeam Saxo-Tinkoff05:08:19  +  00:16:47=32,694 
54 ESPRubén PlazaESPMovistar Team05:11:14  +  00:19:42=32,387 
55 LUXLaurent DidierLUXRadioShack Leopard05:12:31  +  00:20:59=32,254 
56 CRCAndrey AmadorESPMovistar Team05:13:17  +  00:21:45=32,175 
57 ESPJonathan CastroviejoESPMovistar Team05:13:17  +  00:21:45=32,175 
58 NEDJohnny HoogerlandNLDVacansoleil - DCM05:13:48  +  00:22:16=32,122 
59 AUSAdam HansenBELLotto-Belisol Team05:13:48  +  00:22:16=32,122 
60 FRAJulien El FarèsFRASojasun05:13:48  +  00:22:16=32,122 
61 UZBSergey LagutinNLDVacansoleil - DCM05:13:48  +  00:22:16=32,122 
62 RUSEduard VorganovRUSTeam Katusha05:13:48  +  00:22:16=32,122 
63 GERSimon GeschkeNLDArgos–Shimano05:14:02  +  00:22:30=32,099 
64 FRASébastien MinardFRAAg2r La Mondiale05:14:05  +  00:22:33=32,093 
65 JPNYukiya ArashiroFRATeam Europcar05:15:52  +  00:24:20=31,912 
66 ITAFrancesco GavazziKAZAstana Pro Team05:15:54  +  00:24:22=31,909 
67 GERMarcus BurghardtUSABMC Racing Team05:16:29  +  00:24:57=31,850 
68 DENLars BakBELLotto-Belisol Team05:16:42  +  00:25:10=31,828 
69 NZLJack BauerUSAGarmin Sharp05:16:42  +  00:25:10=31,828 
70 ESPDavid LopezGBRSky Procycling05:16:42  +  00:25:10=31,828 
71 ESPJosé Joaquin RojasESPMovistar Team05:16:42  +  00:25:10=31,828 
72 NEDKoen De KortNLDArgos–Shimano05:16:42  +  00:25:10=31,828 
73 NEDTom DumoulinNLDArgos–Shimano05:16:42  +  00:25:10=31,828 
74 ESPImanol ErvitiESPMovistar Team05:16:42  +  00:25:10=31,828 
75 BELThomas De GendtNLDVacansoleil - DCM05:16:42  +  00:25:10=31,828 
76 ENGDaniel MartinUSAGarmin Sharp05:16:42  +  00:25:10=31,828 
77 CANDavid VeilleuxFRATeam Europcar05:16:42  +  00:25:10=31,828 
78 SLOKristjan KorenITACannondale Pro Cycling05:16:42  +  00:25:10=31,828 
79 PORRui CostaESPMovistar Team05:16:42  +  00:25:10=31,828 
80 AUSCadel EvansUSABMC Racing Team05:16:42  +  00:25:10=31,828 
81 ITAManuele MoriITALampre-Merida05:16:42  +  00:25:10=31,828 
82 FRAAnthony DelaplaceFRASojasun05:16:42  +  00:25:10=31,828 
83 FRATony GallopinLUXRadioShack Leopard05:16:42  +  00:25:10=31,828 
84 ESPMarkel IrizarLUXRadioShack Leopard05:16:42  +  00:25:10=31,828 
85 NEDBram TankinkNLDBelkin Pro Cycling05:16:42  +  00:25:10=31,828 
86 ITADavide MalacarneFRATeam Europcar05:16:42  +  00:25:10=31,828 
87 BLRKanstantin SivtsovGBRSky Procycling05:16:42  +  00:25:10=31,828 
88 FRARomain SicardESPEuskaltel - Euskadi05:16:42  +  00:25:10=31,828 
89 FRAJulien SimonFRASojasun05:16:42  +  00:25:10=31,828 
90 USABrent BookwalterUSABMC Racing Team05:16:42  +  00:25:10=31,828 
91 FRAKévin RezaFRATeam Europcar05:16:42  +  00:25:10=31,828 
92 FRAJérôme CoppelFRACofidis – Solutions Crédits05:16:42  +  00:25:10=31,828 
93 NEDLieuwe WestraNLDVacansoleil - DCM05:16:42  +  00:25:10=31,828 
94 ESPLuis Angel MateFRACofidis – Solutions Crédits05:16:42  +  00:25:10=31,828 
95 FRAArthur VichotFRAFDJ.fr05:16:42  +  00:25:10=31,828 
96 ARGJuan Antonio FlechaNLDVacansoleil - DCM05:16:42  +  00:25:10=31,828 
97 GERAndréas KlödenLUXRadioShack Leopard05:16:42  +  00:25:10=31,828 
98 FRAAmaël MoinardUSABMC Racing Team05:16:42  +  00:25:10=31,828 
99 FRAJérôme CousinFRATeam Europcar05:16:42  +  00:25:10=31,828 
100 AUSSimon ClarkeAUSOrica - GreenEDGE05:16:42  +  00:25:10=31,828 
101 SUIMichael AlbasiniAUSOrica - GreenEDGE05:16:42  +  00:25:10=31,828 
102 NEDBoy van PoppelNLDVacansoleil - DCM05:16:42  +  00:25:10=31,828 
103 WALGeraint ThomasGBRSky Procycling05:16:42  +  00:25:10=31,828 
104 ENGIan StannardGBRSky Procycling05:16:42  +  00:25:10=31,828 
105 BELSep VanmarckeNLDBelkin Pro Cycling05:16:42  +  00:25:10=31,828 
106 ITAMatteo TosattoDNKTeam Saxo-Tinkoff05:17:19  +  00:25:47=31,766 
107 BRAMurilo Antonio FischerFRAFDJ.fr05:17:19  +  00:25:47=31,766 
108 ITAAlan MarangoniITACannondale Pro Cycling05:17:21  +  00:25:49=31,763 
109 GERJohn DegenkolbNLDArgos–Shimano05:17:21  +  00:25:49=31,763 
110 FRAYohann GèneFRATeam Europcar05:17:40  +  00:26:08=31,731 
111 URSGatis SmukulisRUSTeam Katusha05:17:57  +  00:26:25=31,703 
112 NEDAlbert TimmerNLDArgos–Shimano05:18:10  +  00:26:38=31,682 
113 ITAFabio SabatiniITACannondale Pro Cycling05:18:38  +  00:27:06=31,635 
114 SVKPeter SaganITACannondale Pro Cycling05:18:38  +  00:27:06=31,635 
115 ESPJon Izaguirre InsaustiESPEuskaltel - Euskadi05:19:45  +  00:28:13=31,525 
116 FRARudy MolardFRACofidis – Solutions Crédits05:20:41  +  00:29:09=31,433 
117 NEDTom LeezerNLDBelkin Pro Cycling05:20:49  +  00:29:17=31,420 
118 NEDNiki TerpstraBELOmega Pharma – Quick Step05:21:35  +  00:30:03=31,345 
119 BELKris BoeckmansNLDVacansoleil - DCM05:21:35  +  00:30:03=31,345 
120 NEDRoy CurversNLDArgos–Shimano05:21:35  +  00:30:03=31,345 
121 GERJohannes FröhlingerNLDArgos–Shimano05:21:35  +  00:30:03=31,345 
122 ITAEnrico GasparottoKAZAstana Pro Team05:21:35  +  00:30:03=31,345 
123 ITAManuel QuinziatoUSABMC Racing Team05:21:35  +  00:30:03=31,345 
124 BELPhilippe GilbertUSABMC Racing Team05:21:35  +  00:30:03=31,345 
125 ESPRuben PerezESPEuskaltel - Euskadi05:21:35  +  00:30:03=31,345 
126 AUSSimon GerransAUSOrica - GreenEDGE05:21:35  +  00:30:03=31,345 
127 AUSBrett LancasterAUSOrica - GreenEDGE05:21:35  +  00:30:03=31,345 
128 BELJürgen RoelandtsBELLotto-Belisol Team05:21:35  +  00:30:03=31,345 
129 RSADaryl ImpeyAUSOrica - GreenEDGE05:21:35  +  00:30:03=31,345 
130 AUSMatthew GossAUSOrica - GreenEDGE05:21:35  +  00:30:03=31,345 
131 FRANicolas RocheDNKTeam Saxo-Tinkoff05:21:35  +  00:30:03=31,345 
132 GERMarcel KittelNLDArgos–Shimano05:21:35  +  00:30:03=31,345 
133 POLMaciej BodnarITACannondale Pro Cycling05:21:35  +  00:30:03=31,345 
134 GERAndré GreipelBELLotto-Belisol Team05:21:35  +  00:30:03=31,345 
135 DENBrian VandborgITACannondale Pro Cycling05:21:35  +  00:30:03=31,345 
136 ESPJuan José OrozESPEuskaltel - Euskadi05:21:35  +  00:30:03=31,345 
137 RUSYury TrofimovRUSTeam Katusha05:21:35  +  00:30:03=31,345 
138 MLTDavid MillarUSAGarmin Sharp05:21:35  +  00:30:03=31,345 
139 FRAJérôme PineauBELOmega Pharma – Quick Step05:21:35  +  00:30:03=31,345 
140 ESPEgoitz GarciaFRACofidis – Solutions Crédits05:21:35  +  00:30:03=31,345 
141 BELMaarten WynantsNLDBelkin Pro Cycling05:21:35  +  00:30:03=31,345 
142 FRAChristophe Le MevelFRACofidis – Solutions Crédits05:21:35  +  00:30:03=31,345 
143 BELGert SteegmansBELOmega Pharma – Quick Step05:21:35  +  00:30:03=31,345 
144 FRASamuel DumoulinFRAAg2r La Mondiale05:21:35  +  00:30:03=31,345 
145 ESPAlberto LosadaRUSTeam Katusha05:21:35  +  00:30:03=31,345 
146 IOMMark CavendishBELOmega Pharma – Quick Step05:21:35  +  00:30:03=31,345 
147 BELFrederik WillemsBELLotto-Belisol Team05:21:35  +  00:30:03=31,345 
148 FRABlel KadriFRAAg2r La Mondiale05:21:35  +  00:30:03=31,345 
149 AUSCameron MeyerAUSOrica - GreenEDGE05:21:35  +  00:30:03=31,345 
150 FRAJonathan HivertFRASojasun05:21:35  +  00:30:03=31,345 
151 ITAElia FavilliITALampre-Merida05:21:35  +  00:30:03=31,345 
152 FRACyril LemoineFRASojasun05:21:35  +  00:30:03=31,345 
153 URSRein TaaramäeFRACofidis – Solutions Crédits05:21:35  +  00:30:03=31,345 
154 URSRamunas NavardauskasUSAGarmin Sharp05:21:35  +  00:30:03=31,345 
155 GERTony MartinBELOmega Pharma – Quick Step05:21:35  +  00:30:03=31,345 
156 RUSPavel BruttRUSTeam Katusha05:21:35  +  00:30:03=31,345 
157 NORAlexander KristoffRUSTeam Katusha05:21:35  +  00:30:03=31,345 
158 CANSvein TuftAUSOrica - GreenEDGE05:21:35  +  00:30:03=31,345 
159 BLRAliaksandr KuchynskiRUSTeam Katusha05:21:35  +  00:30:03=31,345 
160 KAZAssan BazayevKAZAstana Pro Team05:21:35  +  00:30:03=31,345 
161 FRAMaxime MederelFRASojasun05:21:35  +  00:30:03=31,345 
162 FRAJérémy RoyFRAFDJ.fr05:21:35  +  00:30:03=31,345 
163 KAZDmitriy MuravyevKAZAstana Pro Team05:21:35  +  00:30:03=31,345 
164 NZLGregory HendersonBELLotto-Belisol Team05:21:35  +  00:30:03=31,345 
165 FRABrice FeilluFRASojasun05:21:35  +  00:30:03=31,345 
166 AUSStuart O'GradyAUSOrica - GreenEDGE05:21:35  +  00:30:03=31,345 
167 GERMarcel SiebergBELLotto-Belisol Team05:21:35  +  00:30:03=31,345 
168 FRAJean-Marc MarinoFRASojasun05:21:48  +  00:30:16=31,324 
169 ITARoberto FerrariITALampre-Merida05:21:58  +  00:30:26=31,308 
170 PORSergio PaulinhoDNKTeam Saxo-Tinkoff05:22:23  +  00:30:51=31,267 
171 ITADavide CimolaiITALampre-Merida05:23:34  +  00:32:02=31,153 
172 ITAMatteo TrentinBELOmega Pharma – Quick Step05:23:34  +  00:32:02=31,153 
173 ESPJuan LobatoESPEuskaltel - Euskadi05:23:34  +  00:32:02=31,153 
174 ITADaniele BennatiDNKTeam Saxo-Tinkoff05:23:34  +  00:32:02=31,153 
175 NEDTom VeelersNLDArgos–Shimano05:24:50  +  00:33:18=31,031 

Withdrawls: 2
 
Rider
Team
Reason
68  KAZAlexey LutsenkoKAZAstana Pro TeamDid not finish
72  FRAWilliam BonnetFRAFDJ.frDid not finish

Todays birthdays.

1911  Pierre Janvier
1919  Miguel Gual
1925  Jacques Marinelli
1943  Domingo Perurena
1955  Antonio Londoño
1969  José Castelblanco
1972  Bingen Fernandez
1975  Thierry Loder